Time;durP1;ratioP1;P1;durP2;ratioP2;P2;SDS_P1;SDS_P2;PMS_P1;PMS_P2;Temp;Humidity;BMP_temperature;BMP_pressure;BME280_temperature;BME280_humidity;BME280_pressure;Samples;Min_cycle;Max_cycle;Signal;HPM_P1;HPM_P2
2023/05/10 00:00:29;;;;;;;12.50;10.00;;;;;;;9.45;80.07;100221.23;186092;1235;58347;-87
2023/05/10 00:04:45;;;;;;;8.30;7.40;;;;;;;9.43;80.20;100213.48;185991;1235;44089;-86
2023/05/10 00:08:47;;;;;;;10.80;8.80;;;;;;;9.38;80.26;100214.86;186034;1236;43945;-87
2023/05/10 00:12:49;;;;;;;12.70;9.10;;;;;;;9.36;80.60;100212.60;185896;1235;43600;-88
2023/05/10 00:17:09;;;;;;;9.10;7.80;;;;;;;9.29;81.02;100207.30;185938;1236;44100;-87
2023/05/10 00:21:11;;;;;;;7.80;6.80;;;;;;;9.22;81.40;100211.31;186004;1235;59257;-87
2023/05/10 00:25:15;;;;;;;10.80;8.00;;;;;;;9.16;81.72;100206.14;185943;1235;43976;-87
2023/05/10 00:29:17;;;;;;;14.70;8.80;;;;;;;9.09;82.32;100203.34;186078;1235;43616;-88
2023/05/10 00:33:19;;;;;;;17.90;10.60;;;;;;;9.03;82.55;100202.55;185882;1235;43986;-89
2023/05/10 00:37:21;;;;;;;9.10;7.50;;;;;;;8.97;82.81;100197.66;185928;1235;43951;-88
2023/05/10 00:41:22;;;;;;;11.60;7.90;;;;;;;8.96;83.01;100196.56;185868;1235;58120;-88
2023/05/10 00:45:24;;;;;;;10.90;9.10;;;;;;;8.93;83.22;100194.82;185952;1236;44014;-88
2023/05/10 00:49:27;;;;;;;9.40;7.60;;;;;;;8.89;83.29;100194.54;185887;1235;43989;-88
2023/05/10 00:53:31;;;;;;;12.30;8.90;;;;;;;8.89;83.40;100186.81;186032;1236;43788;-88
2023/05/10 00:57:33;;;;;;;11.70;9.30;;;;;;;8.87;83.34;100183.41;185947;1235;43693;-88
2023/05/10 01:01:36;;;;;;;11.20;8.10;;;;;;;8.86;83.20;100182.43;185878;1239;59259;-88
2023/05/10 01:05:38;;;;;;;13.40;8.60;;;;;;;8.84;83.64;100182.57;186061;1236;44167;-88
2023/05/10 01:09:40;;;;;;;12.10;9.70;;;;;;;8.82;84.00;100181.52;185952;1235;43876;-88
2023/05/10 01:13:45;;;;;;;10.90;8.70;;;;;;;8.78;84.22;100176.66;185800;1235;43855;-88
2023/05/10 01:17:48;;;;;;;17.20;10.00;;;;;;;8.73;84.50;100179.48;186029;1235;43655;-88
2023/05/10 01:21:56;;;;;;;9.50;8.40;;;;;;;8.71;84.71;100175.55;186012;1235;58105;-87
2023/05/10 01:26:14;;;;;;;14.70;8.90;;;;;;;8.67;84.98;100175.16;186020;1235;43810;-88
2023/05/10 01:30:31;;;;;;;12.60;8.60;;;;;;;8.61;85.58;100173.00;186058;1235;44081;-86
2023/05/10 01:34:51;;;;;;;13.00;10.00;;;;;;;8.59;85.79;100172.98;186039;1236;43849;-86
2023/05/10 01:39:14;;;;;;;14.10;10.10;;;;;;;8.57;85.72;100171.52;185997;1235;43705;-86
2023/05/10 01:43:23;;;;;;;12.00;9.50;;;;;;;8.55;85.86;100172.52;185981;1236;57975;-86
2023/05/10 01:47:27;;;;;;;12.30;9.30;;;;;;;8.53;85.90;100169.52;186208;1236;43745;-86
2023/05/10 01:51:39;;;;;;;11.30;8.20;;;;;;;8.53;86.13;100166.55;186082;1235;43989;-86
2023/05/10 01:55:53;;;;;;;11.20;9.60;;;;;;;8.50;86.52;100165.64;186180;1236;44022;-87
2023/05/10 01:59:56;;;;;;;14.10;10.70;;;;;;;8.43;86.92;100164.58;185863;1235;43681;-88
2023/05/10 02:03:59;;;;;;;10.70;7.40;;;;;;;8.34;87.40;100167.68;185858;1236;57795;-87
2023/05/10 02:08:05;;;;;;;12.10;9.50;;;;;;;8.27;87.98;100166.62;185919;1235;43701;-88
2023/05/10 02:12:08;;;;;;;14.80;9.10;;;;;;;8.20;88.42;100164.16;185972;1235;43751;-88
2023/05/10 02:16:12;;;;;;;14.20;10.10;;;;;;;8.13;88.88;100161.80;186260;1235;43961;-88
2023/05/10 02:20:18;;;;;;;13.90;10.60;;;;;;;8.11;88.90;100162.86;186109;1235;43943;-88
2023/05/10 02:24:22;;;;;;;;;;;;;;;8.08;89.26;100165.70;186251;1235;59302;-87
2023/05/10 02:28:26;;;;;;;13.60;9.60;;;;;;;8.00;89.66;100163.06;186006;1235;43689;-87
2023/05/10 02:32:29;;;;;;;13.00;9.80;;;;;;;7.95;90.03;100159.45;185787;1235;43700;-86
2023/05/10 02:36:32;;;;;;;12.70;10.20;;;;;;;7.84;90.79;100159.81;185875;1237;43970;-86
2023/05/10 02:40:35;;;;;;;11.70;8.20;;;;;;;7.77;91.35;100151.55;186088;1236;44137;-87
2023/05/10 02:44:39;;;;;;;14.60;9.80;;;;;;;7.75;91.59;100155.93;186068;1235;58824;-88
2023/05/10 02:48:41;;;;;;;15.80;10.50;;;;;;;7.70;91.98;100162.07;186008;1236;44073;-88
2023/05/10 02:52:47;;;;;;;11.60;8.30;;;;;;;7.67;92.20;100155.79;185910;1235;43675;-87
2023/05/10 02:56:57;;;;;;;15.30;10.40;;;;;;;7.65;92.23;100155.35;186258;1235;43719;-87
2023/05/10 03:01:00;;;;;;;15.40;9.70;;;;;;;7.63;92.47;100157.26;186226;1239;44069;-85
2023/05/10 03:05:03;;;;;;;14.70;10.10;;;;;;;7.60;92.59;100162.09;185838;1235;59401;-85
2023/05/10 03:09:05;;;;;;;12.30;9.00;;;;;;;7.60;92.57;100156.59;186029;1237;44191;-85
2023/05/10 03:13:32;;;;;;;10.00;8.40;;;;;;;7.59;92.89;100157.92;186199;1235;43696;-85
2023/05/10 03:17:39;;;;;;;11.70;8.40;;;;;;;7.58;92.78;100150.40;186214;1235;43986;-85
2023/05/10 03:21:47;;;;;;;13.80;9.70;;;;;;;7.58;92.94;100155.66;186058;1237;44066;-87
2023/05/10 03:25:52;;;;;;;12.20;8.30;;;;;;;7.62;92.85;100153.14;185955;1235;59677;-86
2023/05/10 03:29:55;;;;;;;12.30;8.00;;;;;;;7.63;92.91;100155.68;185851;1235;44118;-86
2023/05/10 03:33:58;;;;;;;11.40;9.60;;;;;;;7.70;92.78;100157.29;186005;1236;43731;-86
2023/05/10 03:38:01;;;;;;;20.90;14.90;;;;;;;7.75;92.69;100156.95;185811;1235;43683;-86
2023/05/10 03:42:03;;;;;;;29.40;19.90;;;;;;;7.83;92.29;100149.14;186054;1235;43750;-86
2023/05/10 03:46:07;;;;;;;24.80;15.20;;;;;;;7.88;91.99;100159.08;185782;1236;59671;-84
2023/05/10 03:50:10;;;;;;;37.00;13.00;;;;;;;7.94;91.80;100153.49;185906;1235;43741;-86
2023/05/10 03:54:12;;;;;;;13.60;10.00;;;;;;;8.01;91.94;100157.73;185853;1236;43904;-86
2023/05/10 03:58:14;;;;;;;15.80;11.80;;;;;;;8.12;91.30;100156.89;186104;1236;44068;-88
2023/05/10 04:02:16;;;;;;;16.80;11.30;;;;;;;8.19;90.62;100155.74;186236;1239;43663;-88
2023/05/10 04:06:19;;;;;;;15.40;10.90;;;;;;;8.28;90.76;100158.56;186036;1235;57983;-90
2023/05/10 04:10:21;;;;;;;19.40;15.60;;;;;;;8.42;90.57;100158.63;186063;1239;43705;-86
2023/05/10 04:14:25;;;;;;;30.30;22.60;;;;;;;8.83;89.61;100154.50;185940;1237;43914;-89
2023/05/10 04:18:27;;;;;;;14.00;10.80;;;;;;;9.70;86.57;100150.77;186123;1235;43637;-89
2023/05/10 04:22:30;;;;;;;51.00;33.20;;;;;;;10.64;80.73;100153.06;186161;1235;43996;-89
2023/05/10 04:26:32;;;;;;;18.50;14.20;;;;;;;11.50;76.53;100146.81;186144;1236;59449;-90
2023/05/10 04:30:34;;;;;;;19.70;12.60;;;;;;;12.22;72.88;100149.73;185908;1240;43947;-85
2023/05/10 04:34:37;;;;;;;12.70;11.30;;;;;;;12.61;70.55;100151.52;186055;1235;43753;-88
2023/05/10 04:38:40;;;;;;;18.60;14.90;;;;;;;13.04;68.94;100145.74;185920;1235;43940;-89
2023/05/10 04:42:43;;;;;;;11.30;10.20;;;;;;;13.51;67.43;100139.17;185879;1235;43909;-89
2023/05/10 04:46:45;;;;;;;13.30;12.00;;;;;;;13.84;66.15;100140.66;185902;1235;58094;-90
2023/05/10 04:50:47;;;;;;;14.80;12.90;;;;;;;14.09;65.26;100136.80;185724;1235;43989;-89
2023/05/10 04:54:50;;;;;;;11.70;10.50;;;;;;;14.15;64.58;100138.19;185928;1235;43874;-90
2023/05/10 04:58:53;;;;;;;14.00;11.50;;;;;;;14.28;64.42;100139.77;185983;1235;44193;-89
2023/05/10 05:02:55;;;;;;;10.30;9.10;;;;;;;14.52;64.28;100134.86;185967;1235;44107;-89
2023/05/10 05:06:57;;;;;;;13.50;8.90;;;;;;;14.81;63.65;100132.37;185767;1235;59879;-88
2023/05/10 05:10:59;;;;;;;9.60;6.40;;;;;;;14.99;63.20;100127.64;186202;1235;81105;-59
2023/05/10 05:15:03;;;;;;;13.00;8.20;;;;;;;15.05;62.51;100125.59;186697;1235;43623;-59
2023/05/10 05:19:05;;;;;;;10.10;7.90;;;;;;;15.12;62.30;100125.80;186760;1236;43071;-59
2023/05/10 05:23:08;;;;;;;14.30;8.00;;;;;;;15.04;62.07;100123.55;186786;1235;43562;-59
2023/05/10 05:27:11;;;;;;;10.80;7.30;;;;;;;14.97;62.83;100122.20;186633;1236;58986;-59
2023/05/10 05:31:14;;;;;;;33.30;23.30;;;;;;;15.04;62.55;100116.95;186721;1235;43834;-59
